sensor_id;sensor_type;location;lat;lon;timestamp;temperature;humidity
73576;DHT22;61859;49.204;8.140;2023-02-13T00:02:13;2.80;99.90
73576;DHT22;61859;49.204;8.140;2023-02-13T00:04:40;2.70;99.90
73576;DHT22;61859;49.204;8.140;2023-02-13T00:07:07;2.70;99.90
73576;DHT22;61859;49.204;8.140;2023-02-13T00:09:33;2.70;99.90
73576;DHT22;61859;49.204;8.140;2023-02-13T00:11:58;2.60;99.90
73576;DHT22;61859;49.204;8.140;2023-02-13T00:14:24;2.80;99.90
73576;DHT22;61859;49.204;8.140;2023-02-13T00:16:49;2.60;99.90
73576;DHT22;61859;49.204;8.140;2023-02-13T00:19:15;2.60;99.90
73576;DHT22;61859;49.204;8.140;2023-02-13T00:21:41;2.70;99.90
73576;DHT22;61859;49.204;8.140;2023-02-13T00:24:06;2.60;99.90
73576;DHT22;61859;49.204;8.140;2023-02-13T00:26:32;2.70;99.90
73576;DHT22;61859;49.204;8.140;2023-02-13T00:28:58;2.70;99.90
73576;DHT22;61859;49.204;8.140;2023-02-13T00:31:23;2.70;99.90
73576;DHT22;61859;49.204;8.140;2023-02-13T00:33:49;2.60;99.90
73576;DHT22;61859;49.204;8.140;2023-02-13T00:36:19;2.80;99.90
73576;DHT22;61859;49.204;8.140;2023-02-13T00:38:46;2.80;99.90
73576;DHT22;61859;49.204;8.140;2023-02-13T00:41:12;2.80;99.90
73576;DHT22;61859;49.204;8.140;2023-02-13T00:43:39;2.70;99.90
73576;DHT22;61859;49.204;8.140;2023-02-13T00:46:05;2.60;99.90
73576;DHT22;61859;49.204;8.140;2023-02-13T00:48:32;2.70;99.90
73576;DHT22;61859;49.204;8.140;2023-02-13T00:50:58;2.70;99.90
73576;DHT22;61859;49.204;8.140;2023-02-13T00:53:24;2.60;99.90
73576;DHT22;61859;49.204;8.140;2023-02-13T00:55:50;2.90;99.90
73576;DHT22;61859;49.204;8.140;2023-02-13T00:58:17;2.80;99.90
73576;DHT22;61859;49.204;8.140;2023-02-13T01:00:43;2.70;99.90
73576;DHT22;61859;49.204;8.140;2023-02-13T01:03:12;2.70;99.90
73576;DHT22;61859;49.204;8.140;2023-02-13T01:05:37;2.60;99.90
73576;DHT22;61859;49.204;8.140;2023-02-13T01:08:03;2.80;99.90
73576;DHT22;61859;49.204;8.140;2023-02-13T01:10:28;2.60;99.90
73576;DHT22;61859;49.204;8.140;2023-02-13T01:12:54;2.50;99.90
73576;DHT22;61859;49.204;8.140;2023-02-13T01:15:20;2.60;99.90
73576;DHT22;61859;49.204;8.140;2023-02-13T01:17:46;2.60;99.90
73576;DHT22;61859;49.204;8.140;2023-02-13T01:20:12;2.40;99.90
73576;DHT22;61859;49.204;8.140;2023-02-13T01:22:38;2.60;99.90
73576;DHT22;61859;49.204;8.140;2023-02-13T01:25:04;2.50;99.90
73576;DHT22;61859;49.204;8.140;2023-02-13T01:27:30;2.70;99.90
73576;DHT22;61859;49.204;8.140;2023-02-13T01:29:57;2.60;99.90
73576;DHT22;61859;49.204;8.140;2023-02-13T01:32:22;2.60;99.90
73576;DHT22;61859;49.204;8.140;2023-02-13T01:34:48;2.70;99.90
73576;DHT22;61859;49.204;8.140;2023-02-13T01:37:14;2.60;99.90
73576;DHT22;61859;49.204;8.140;2023-02-13T01:39:39;2.50;99.90
73576;DHT22;61859;49.204;8.140;2023-02-13T01:42:14;2.70;99.90
73576;DHT22;61859;49.204;8.140;2023-02-13T01:44:52;2.70;99.90
73576;DHT22;61859;49.204;8.140;2023-02-13T01:52:30;2.70;99.90
73576;DHT22;61859;49.204;8.140;2023-02-13T01:54:56;2.70;99.90
73576;DHT22;61859;49.204;8.140;2023-02-13T01:57:24;2.90;99.90
73576;DHT22;61859;49.204;8.140;2023-02-13T02:00:05;2.80;99.90
73576;DHT22;61859;49.204;8.140;2023-02-13T02:02:35;2.80;99.90
73576;DHT22;61859;49.204;8.140;2023-02-13T02:05:02;2.90;99.90
73576;DHT22;61859;49.204;8.140;2023-02-13T02:07:30;2.90;99.90
73576;DHT22;61859;49.204;8.140;2023-02-13T02:09:59;2.90;99.90
73576;DHT22;61859;49.204;8.140;2023-02-13T02:15:08;2.70;99.90
73576;DHT22;61859;49.204;8.140;2023-02-13T02:17:34;2.70;99.90
73576;DHT22;61859;49.204;8.140;2023-02-13T02:26:07;2.80;99.90
73576;DHT22;61859;49.204;8.140;2023-02-13T02:40:09;2.80;99.90
73576;DHT22;61859;49.204;8.140;2023-02-13T02:45:55;2.30;99.90
73576;DHT22;61859;49.204;8.140;2023-02-13T02:48:31;2.30;99.90
73576;DHT22;61859;49.204;8.140;2023-02-13T02:54:20;2.40;99.90
73576;DHT22;61859;49.204;8.140;2023-02-13T02:57:12;2.30;99.90
73576;DHT22;61859;49.204;8.140;2023-02-13T02:59:40;2.40;99.90
73576;DHT22;61859;49.204;8.140;2023-02-13T03:02:27;2.30;99.90
73576;DHT22;61859;49.204;8.140;2023-02-13T03:05:18;2.50;99.90
73576;DHT22;61859;49.204;8.140;2023-02-13T03:08:04;2.50;99.90
73576;DHT22;61859;49.204;8.140;2023-02-13T03:10:32;2.40;99.90
73576;DHT22;61859;49.204;8.140;2023-02-13T03:13:30;2.50;99.90
73576;DHT22;61859;49.204;8.140;2023-02-13T03:15:59;2.40;99.90
73576;DHT22;61859;49.204;8.140;2023-02-13T03:18:46;2.40;99.90
73576;DHT22;61859;49.204;8.140;2023-02-13T03:27:29;2.20;99.90
73576;DHT22;61859;49.204;8.140;2023-02-13T03:30:24;2.40;99.90
73576;DHT22;61859;49.204;8.140;2023-02-13T03:33:17;2.10;99.90
73576;DHT22;61859;49.204;8.140;2023-02-13T03:39:08;2.10;99.90
73576;DHT22;61859;49.204;8.140;2023-02-13T03:41:54;2.10;99.90
73576;DHT22;61859;49.204;8.140;2023-02-13T03:47:08;2.10;99.90
73576;DHT22;61859;49.204;8.140;2023-02-13T03:49:44;2.10;99.90
73576;DHT22;61859;49.204;8.140;2023-02-13T03:52:55;2.20;99.90
73576;DHT22;61859;49.204;8.140;2023-02-13T03:55:30;2.00;99.90
73576;DHT22;61859;49.204;8.140;2023-02-13T03:58:21;2.00;99.90
73576;DHT22;61859;49.204;8.140;2023-02-13T04:01:07;2.20;99.90
73576;DHT22;61859;49.204;8.140;2023-02-13T04:06:59;2.10;99.90
73576;DHT22;61859;49.204;8.140;2023-02-13T04:09:28;2.20;99.90
73576;DHT22;61859;49.204;8.140;2023-02-13T04:14:35;2.10;99.90
73576;DHT22;61859;49.204;8.140;2023-02-13T04:17:09;2.30;99.90
73576;DHT22;61859;49.204;8.140;2023-02-13T04:19:37;2.20;99.90
73576;DHT22;61859;49.204;8.140;2023-02-13T04:22:03;2.50;99.90
73576;DHT22;61859;49.204;8.140;2023-02-13T04:24:29;2.10;99.90
73576;DHT22;61859;49.204;8.140;2023-02-13T04:26:55;2.20;99.90
73576;DHT22;61859;49.204;8.140;2023-02-13T04:29:22;2.20;99.90
73576;DHT22;61859;49.204;8.140;2023-02-13T04:31:48;2.10;99.90
73576;DHT22;61859;49.204;8.140;2023-02-13T04:34:14;2.10;99.90
73576;DHT22;61859;49.204;8.140;2023-02-13T04:36:40;2.00;99.90
73576;DHT22;61859;49.204;8.140;2023-02-13T04:39:05;2.20;99.90
73576;DHT22;61859;49.204;8.140;2023-02-13T04:41:31;2.20;99.90
73576;DHT22;61859;49.204;8.140;2023-02-13T04:43:56;2.10;99.90
73576;DHT22;61859;49.204;8.140;2023-02-13T04:46:22;2.10;99.90
73576;DHT22;61859;49.204;8.140;2023-02-13T04:48:48;2.10;99.90
73576;DHT22;61859;49.204;8.140;2023-02-13T04:51:13;2.00;99.90
73576;DHT22;61859;49.204;8.140;2023-02-13T04:53:39;2.00;99.90
73576;DHT22;61859;49.204;8.140;2023-02-13T04:56:04;2.00;99.90
73576;DHT22;61859;49.204;8.140;2023-02-13T04:58:30;1.90;99.90
73576;DHT22;61859;49.204;8.140;2023-02-13T05:00:55;1.90;99.90
73576;DHT22;61859;49.204;8.140;2023-02-13T05:03:21;1.90;99.90
73576;DHT22;61859;49.204;8.140;2023-02-13T05:05:47;1.80;99.90
73576;DHT22;61859;49.204;8.140;2023-02-13T05:08:13;1.90;99.90
73576;DHT22;61859;49.204;8.140;2023-02-13T05:10:39;1.80;99.90
73576;DHT22;61859;49.204;8.140;2023-02-13T05:13:04;1.50;99.90
73576;DHT22;61859;49.204;8.140;2023-02-13T05:15:30;1.50;99.90
73576;DHT22;61859;49.204;8.140;2023-02-13T05:17:56;1.70;99.90
73576;DHT22;61859;49.204;8.140;2023-02-13T05:20:21;1.70;99.90
73576;DHT22;61859;49.204;8.140;2023-02-13T05:22:52;1.50;99.90
73576;DHT22;61859;49.204;8.140;2023-02-13T05:25:38;1.50;99.90
73576;DHT22;61859;49.204;8.140;2023-02-13T05:28:05;1.50;99.90
73576;DHT22;61859;49.204;8.140;2023-02-13T05:30:51;1.40;99.90
73576;DHT22;61859;49.204;8.140;2023-02-13T05:33:16;1.20;99.90
73576;DHT22;61859;49.204;8.140;2023-02-13T05:35:42;1.40;99.90
73576;DHT22;61859;49.204;8.140;2023-02-13T05:38:07;1.40;99.90
73576;DHT22;61859;49.204;8.140;2023-02-13T05:40:33;1.40;99.90
73576;DHT22;61859;49.204;8.140;2023-02-13T05:42:58;1.40;99.90
73576;DHT22;61859;49.204;8.140;2023-02-13T05:45:24;1.30;99.90
73576;DHT22;61859;49.204;8.140;2023-02-13T05:47:50;1.30;99.90
73576;DHT22;61859;49.204;8.140;2023-02-13T05:50:16;1.40;99.90
73576;DHT22;61859;49.204;8.140;2023-02-13T05:52:42;1.50;99.90
73576;DHT22;61859;49.204;8.140;2023-02-13T05:55:07;1.30;99.90
73576;DHT22;61859;49.204;8.140;2023-02-13T05:57:33;1.50;99.90
73576;DHT22;61859;49.204;8.140;2023-02-13T05:59:58;1.50;99.90
73576;DHT22;61859;49.204;8.140;2023-02-13T06:02:24;1.40;99.90
73576;DHT22;61859;49.204;8.140;2023-02-13T06:04:49;1.50;99.90
73576;DHT22;61859;49.204;8.140;2023-02-13T06:07:15;1.40;99.90
73576;DHT22;61859;49.204;8.140;2023-02-13T06:09:40;1.30;99.90
73576;DHT22;61859;49.204;8.140;2023-02-13T06:12:06;1.20;99.90
73576;DHT22;61859;49.204;8.140;2023-02-13T06:14:31;1.30;99.90
73576;DHT22;61859;49.204;8.140;2023-02-13T06:16:57;1.10;99.90
73576;DHT22;61859;49.204;8.140;2023-02-13T06:19:22;1.20;99.90
73576;DHT22;61859;49.204;8.140;2023-02-13T06:21:48;1.30;99.90
73576;DHT22;61859;49.204;8.140;2023-02-13T06:24:13;1.10;99.90
73576;DHT22;61859;49.204;8.140;2023-02-13T06:26:39;1.10;99.90
73576;DHT22;61859;49.204;8.140;2023-02-13T06:29:04;1.20;99.90
73576;DHT22;61859;49.204;8.140;2023-02-13T06:31:30;1.20;99.90
73576;DHT22;61859;49.204;8.140;2023-02-13T06:33:55;1.00;99.90
73576;DHT22;61859;49.204;8.140;2023-02-13T06:36:21;1.00;99.90
73576;DHT22;61859;49.204;8.140;2023-02-13T06:38:46;0.90;99.90
73576;DHT22;61859;49.204;8.140;2023-02-13T06:41:12;0.70;99.90
73576;DHT22;61859;49.204;8.140;2023-02-13T06:43:37;0.60;99.90
73576;DHT22;61859;49.204;8.140;2023-02-13T06:46:07;0.80;99.90
73576;DHT22;61859;49.204;8.140;2023-02-13T06:48:33;0.70;99.90
73576;DHT22;61859;49.204;8.140;2023-02-13T06:50:59;0.50;99.90
73576;DHT22;61859;49.204;8.140;2023-02-13T06:53:26;0.70;99.90
73576;DHT22;61859;49.204;8.140;2023-02-13T06:55:53;0.50;99.90
73576;DHT22;61859;49.204;8.140;2023-02-13T06:58:22;0.60;99.90
73576;DHT22;61859;49.204;8.140;2023-02-13T07:00:49;0.50;99.90
73576;DHT22;61859;49.204;8.140;2023-02-13T07:03:15;0.60;99.90
73576;DHT22;61859;49.204;8.140;2023-02-13T07:05:41;0.70;99.90
73576;DHT22;61859;49.204;8.140;2023-02-13T07:08:08;0.40;99.90
73576;DHT22;61859;49.204;8.140;2023-02-13T07:10:36;0.60;99.90
73576;DHT22;61859;49.204;8.140;2023-02-13T07:13:03;0.70;99.90
73576;DHT22;61859;49.204;8.140;2023-02-13T07:15:28;0.80;99.90
73576;DHT22;61859;49.204;8.140;2023-02-13T07:17:57;0.80;99.90
73576;DHT22;61859;49.204;8.140;2023-02-13T07:20:24;1.00;99.90
73576;DHT22;61859;49.204;8.140;2023-02-13T07:22:50;0.80;99.90
73576;DHT22;61859;49.204;8.140;2023-02-13T07:25:16;1.00;99.90
73576;DHT22;61859;49.204;8.140;2023-02-13T07:27:41;1.00;99.90
73576;DHT22;61859;49.204;8.140;2023-02-13T07:30:07;1.30;99.90
73576;DHT22;61859;49.204;8.140;2023-02-13T07:32:33;1.50;99.90
73576;DHT22;61859;49.204;8.140;2023-02-13T07:34:58;1.40;99.90
73576;DHT22;61859;49.204;8.140;2023-02-13T07:37:26;1.50;99.90
73576;DHT22;61859;49.204;8.140;2023-02-13T07:39:52;1.60;99.90
73576;DHT22;61859;49.204;8.140;2023-02-13T07:42:18;1.80;99.90
73576;DHT22;61859;49.204;8.140;2023-02-13T07:44:43;1.80;99.90
73576;DHT22;61859;49.204;8.140;2023-02-13T07:47:09;2.00;99.90
73576;DHT22;61859;49.204;8.140;2023-02-13T07:49:34;1.80;99.90
73576;DHT22;61859;49.204;8.140;2023-02-13T07:52:01;2.10;99.90
73576;DHT22;61859;49.204;8.140;2023-02-13T07:54:27;2.10;99.90
73576;DHT22;61859;49.204;8.140;2023-02-13T07:56:52;2.20;99.90
73576;DHT22;61859;49.204;8.140;2023-02-13T07:59:18;2.30;99.90
73576;DHT22;61859;49.204;8.140;2023-02-13T08:01:43;2.10;99.90
73576;DHT22;61859;49.204;8.140;2023-02-13T08:04:09;2.10;99.90
73576;DHT22;61859;49.204;8.140;2023-02-13T08:06:34;2.20;99.90
73576;DHT22;61859;49.204;8.140;2023-02-13T08:09:02;2.40;99.90
73576;DHT22;61859;49.204;8.140;2023-02-13T08:11:46;2.50;99.90
73576;DHT22;61859;49.204;8.140;2023-02-13T08:14:18;2.50;99.90
73576;DHT22;61859;49.204;8.140;2023-02-13T08:16:44;2.60;99.90
73576;DHT22;61859;49.204;8.140;2023-02-13T08:19:09;2.80;99.90
73576;DHT22;61859;49.204;8.140;2023-02-13T08:21:35;2.80;99.90
73576;DHT22;61859;49.204;8.140;2023-02-13T08:24:03;2.70;99.90
73576;DHT22;61859;49.204;8.140;2023-02-13T08:26:30;3.00;99.90
73576;DHT22;61859;49.204;8.140;2023-02-13T08:28:55;3.20;99.90
73576;DHT22;61859;49.204;8.140;2023-02-13T08:31:21;3.40;99.90
73576;DHT22;61859;49.204;8.140;2023-02-13T08:33:47;3.50;99.90
73576;DHT22;61859;49.204;8.140;2023-02-13T08:36:12;3.60;99.90
73576;DHT22;61859;49.204;8.140;2023-02-13T08:38:38;3.90;99.90
73576;DHT22;61859;49.204;8.140;2023-02-13T08:41:03;3.90;99.90
73576;DHT22;61859;49.204;8.140;2023-02-13T08:43:29;4.00;99.90
73576;DHT22;61859;49.204;8.140;2023-02-13T08:45:58;4.00;99.90
73576;DHT22;61859;49.204;8.140;2023-02-13T08:48:24;4.10;99.90
73576;DHT22;61859;49.204;8.140;2023-02-13T08:50:49;4.30;99.90
73576;DHT22;61859;49.204;8.140;2023-02-13T08:53:15;4.30;99.90
73576;DHT22;61859;49.204;8.140;2023-02-13T08:55:40;4.20;99.90
73576;DHT22;61859;49.204;8.140;2023-02-13T08:58:06;4.20;99.90
73576;DHT22;61859;49.204;8.140;2023-02-13T09:00:31;4.30;99.90
73576;DHT22;61859;49.204;8.140;2023-02-13T09:03:01;4.20;99.90
73576;DHT22;61859;49.204;8.140;2023-02-13T09:05:28;4.10;99.90
73576;DHT22;61859;49.204;8.140;2023-02-13T09:07:53;4.10;99.90
73576;DHT22;61859;49.204;8.140;2023-02-13T09:10:19;4.20;99.90
73576;DHT22;61859;49.204;8.140;2023-02-13T09:12:51;4.20;99.90
73576;DHT22;61859;49.204;8.140;2023-02-13T09:15:17;4.20;99.90
73576;DHT22;61859;49.204;8.140;2023-02-13T09:17:42;4.10;99.90
73576;DHT22;61859;49.204;8.140;2023-02-13T09:20:08;4.10;99.90
73576;DHT22;61859;49.204;8.140;2023-02-13T09:22:34;4.00;99.90
73576;DHT22;61859;49.204;8.140;2023-02-13T09:24:59;4.10;99.90
73576;DHT22;61859;49.204;8.140;2023-02-13T09:27:28;3.80;99.90
73576;DHT22;61859;49.204;8.140;2023-02-13T09:29:54;3.90;99.90
73576;DHT22;61859;49.204;8.140;2023-02-13T09:32:19;3.70;99.90
73576;DHT22;61859;49.204;8.140;2023-02-13T09:34:45;3.80;99.90
73576;DHT22;61859;49.204;8.140;2023-02-13T09:37:11;3.70;99.90
73576;DHT22;61859;49.204;8.140;2023-02-13T09:39:36;3.70;99.90
73576;DHT22;61859;49.204;8.140;2023-02-13T09:42:05;3.70;99.90
73576;DHT22;61859;49.204;8.140;2023-02-13T09:44:42;3.90;99.90
73576;DHT22;61859;49.204;8.140;2023-02-13T09:47:15;3.90;99.90
73576;DHT22;61859;49.204;8.140;2023-02-13T09:49:47;3.80;99.90
73576;DHT22;61859;49.204;8.140;2023-02-13T09:52:13;3.80;99.90
73576;DHT22;61859;49.204;8.140;2023-02-13T09:54:39;4.10;99.90
73576;DHT22;61859;49.204;8.140;2023-02-13T09:57:30;4.30;99.90
73576;DHT22;61859;49.204;8.140;2023-02-13T10:13:31;4.90;99.50
73576;DHT22;61859;49.204;8.140;2023-02-13T10:16:11;5.00;99.20
73576;DHT22;61859;49.204;8.140;2023-02-13T10:18:44;5.00;99.10
73576;DHT22;61859;49.204;8.140;2023-02-13T10:21:13;5.10;98.30
73576;DHT22;61859;49.204;8.140;2023-02-13T10:23:49;5.10;98.10
73576;DHT22;61859;49.204;8.140;2023-02-13T10:26:20;5.30;99.20
73576;DHT22;61859;49.204;8.140;2023-02-13T10:28:54;5.20;98.10
73576;DHT22;61859;49.204;8.140;2023-02-13T10:31:44;5.30;96.60
73576;DHT22;61859;49.204;8.140;2023-02-13T10:34:15;5.30;97.10
73576;DHT22;61859;49.204;8.140;2023-02-13T10:36:44;5.20;96.20
73576;DHT22;61859;49.204;8.140;2023-02-13T10:39:27;5.30;98.30
73576;DHT22;61859;49.204;8.140;2023-02-13T10:50:29;6.20;95.30
73576;DHT22;61859;49.204;8.140;2023-02-13T10:53:18;6.60;93.20
73576;DHT22;61859;49.204;8.140;2023-02-13T10:56:22;6.60;91.70
73576;DHT22;61859;49.204;8.140;2023-02-13T11:01:31;7.00;91.30
73576;DHT22;61859;49.204;8.140;2023-02-13T11:04:09;7.20;90.30
73576;DHT22;61859;49.204;8.140;2023-02-13T11:06:39;7.20;91.40
73576;DHT22;61859;49.204;8.140;2023-02-13T11:09:07;7.40;91.20
73576;DHT22;61859;49.204;8.140;2023-02-13T11:11:36;8.30;90.20
73576;DHT22;61859;49.204;8.140;2023-02-13T11:14:22;10.10;84.30
73576;DHT22;61859;49.204;8.140;2023-02-13T11:17:01;11.40;78.20
73576;DHT22;61859;49.204;8.140;2023-02-13T11:19:48;12.40;73.10
73576;DHT22;61859;49.204;8.140;2023-02-13T11:22:39;13.00;69.40
73576;DHT22;61859;49.204;8.140;2023-02-13T11:25:22;13.80;68.40
73576;DHT22;61859;49.204;8.140;2023-02-13T11:27:49;14.60;63.30
73576;DHT22;61859;49.204;8.140;2023-02-13T11:30:32;15.30;61.20
73576;DHT22;61859;49.204;8.140;2023-02-13T11:33:00;15.80;58.60
73576;DHT22;61859;49.204;8.140;2023-02-13T11:35:31;16.30;57.80
73576;DHT22;61859;49.204;8.140;2023-02-13T11:40:44;17.80;53.50
73576;DHT22;61859;49.204;8.140;2023-02-13T11:48:42;18.90;50.10
73576;DHT22;61859;49.204;8.140;2023-02-13T11:51:08;18.70;50.70
73576;DHT22;61859;49.204;8.140;2023-02-13T11:53:38;19.00;50.00
73576;DHT22;61859;49.204;8.140;2023-02-13T11:56:10;19.50;49.80
73576;DHT22;61859;49.204;8.140;2023-02-13T11:58:36;19.90;47.60
73576;DHT22;61859;49.204;8.140;2023-02-13T12:03:36;19.50;48.10
73576;DHT22;61859;49.204;8.140;2023-02-13T12:06:09;19.50;48.10
73576;DHT22;61859;49.204;8.140;2023-02-13T12:08:39;19.50;48.10
73576;DHT22;61859;49.204;8.140;2023-02-13T12:11:39;19.60;48.00
73576;DHT22;61859;49.204;8.140;2023-02-13T12:14:10;19.80;47.10
73576;DHT22;61859;49.204;8.140;2023-02-13T12:16:42;20.10;47.20
73576;DHT22;61859;49.204;8.140;2023-02-13T12:19:19;20.80;45.50
73576;DHT22;61859;49.204;8.140;2023-02-13T12:28:08;22.00;42.40
73576;DHT22;61859;49.204;8.140;2023-02-13T12:36:18;22.30;41.10
73576;DHT22;61859;49.204;8.140;2023-02-13T12:47:14;22.60;41.00
73576;DHT22;61859;49.204;8.140;2023-02-13T12:49:48;22.90;40.40
73576;DHT22;61859;49.204;8.140;2023-02-13T13:07:02;24.10;38.30
73576;DHT22;61859;49.204;8.140;2023-02-13T13:12:36;24.30;37.80
73576;DHT22;61859;49.204;8.140;2023-02-13T13:15:23;24.00;37.90
73576;DHT22;61859;49.204;8.140;2023-02-13T13:18:14;23.80;37.70
73576;DHT22;61859;49.204;8.140;2023-02-13T13:21:00;23.90;37.70
73576;DHT22;61859;49.204;8.140;2023-02-13T13:26:35;23.70;38.60
73576;DHT22;61859;49.204;8.140;2023-02-13T13:29:11;23.70;37.80
73576;DHT22;61859;49.204;8.140;2023-02-13T13:31:39;23.90;38.50
73576;DHT22;61859;49.204;8.140;2023-02-13T13:34:11;23.90;37.70
73576;DHT22;61859;49.204;8.140;2023-02-13T13:36:49;24.20;38.20
73576;DHT22;61859;49.204;8.140;2023-02-13T13:42:13;25.00;36.70
73576;DHT22;61859;49.204;8.140;2023-02-13T13:48:04;25.00;36.40
73576;DHT22;61859;49.204;8.140;2023-02-13T13:50:35;25.30;35.50
73576;DHT22;61859;49.204;8.140;2023-02-13T13:53:10;24.70;36.00
73576;DHT22;61859;49.204;8.140;2023-02-13T13:58:44;24.60;35.80
73576;DHT22;61859;49.204;8.140;2023-02-13T14:01:29;24.90;35.70
73576;DHT22;61859;49.204;8.140;2023-02-13T14:08:57;24.00;36.70
73576;DHT22;61859;49.204;8.140;2023-02-13T14:11:36;24.10;36.60
73576;DHT22;61859;49.204;8.140;2023-02-13T14:16:55;24.40;36.40
73576;DHT22;61859;49.204;8.140;2023-02-13T14:19:25;24.20;36.50
73576;DHT22;61859;49.204;8.140;2023-02-13T14:21:52;24.10;36.40
73576;DHT22;61859;49.204;8.140;2023-02-13T14:24:18;24.10;36.50
73576;DHT22;61859;49.204;8.140;2023-02-13T14:26:55;24.20;36.30
73576;DHT22;61859;49.204;8.140;2023-02-13T14:29:30;23.90;37.70
73576;DHT22;61859;49.204;8.140;2023-02-13T14:32:03;23.50;37.90
73576;DHT22;61859;49.204;8.140;2023-02-13T14:34:36;23.30;37.70
73576;DHT22;61859;49.204;8.140;2023-02-13T14:39:33;22.80;39.00
73576;DHT22;61859;49.204;8.140;2023-02-13T14:42:27;22.30;39.00
73576;DHT22;61859;49.204;8.140;2023-02-13T14:44:55;22.10;39.30
73576;DHT22;61859;49.204;8.140;2023-02-13T14:47:36;21.80;39.30
73576;DHT22;61859;49.204;8.140;2023-02-13T14:50:05;21.70;39.60
73576;DHT22;61859;49.204;8.140;2023-02-13T14:52:37;21.20;40.20
73576;DHT22;61859;49.204;8.140;2023-02-13T14:55:30;20.80;41.80
73576;DHT22;61859;49.204;8.140;2023-02-13T15:03:12;19.90;42.00
73576;DHT22;61859;49.204;8.140;2023-02-13T15:05:49;19.60;42.90
73576;DHT22;61859;49.204;8.140;2023-02-13T15:08:21;19.60;43.00
73576;DHT22;61859;49.204;8.140;2023-02-13T15:10:51;19.30;42.90
73576;DHT22;61859;49.204;8.140;2023-02-13T15:13:21;19.40;43.50
73576;DHT22;61859;49.204;8.140;2023-02-13T15:15:52;19.20;43.40
73576;DHT22;61859;49.204;8.140;2023-02-13T15:18:28;18.70;43.80
73576;DHT22;61859;49.204;8.140;2023-02-13T15:20:56;18.20;44.70
73576;DHT22;61859;49.204;8.140;2023-02-13T15:23:27;17.50;46.10
73576;DHT22;61859;49.204;8.140;2023-02-13T15:25:58;17.00;47.30
73576;DHT22;61859;49.204;8.140;2023-02-13T15:28:25;16.50;49.10
73576;DHT22;61859;49.204;8.140;2023-02-13T15:31:03;16.10;49.90
73576;DHT22;61859;49.204;8.140;2023-02-13T15:36:02;15.10;52.00
73576;DHT22;61859;49.204;8.140;2023-02-13T15:38:35;14.80;53.30
73576;DHT22;61859;49.204;8.140;2023-02-13T15:41:16;14.50;54.10
73576;DHT22;61859;49.204;8.140;2023-02-13T15:43:45;14.40;55.00
73576;DHT22;61859;49.204;8.140;2023-02-13T15:46:30;14.20;55.80
73576;DHT22;61859;49.204;8.140;2023-02-13T15:49:24;14.10;56.00
73576;DHT22;61859;49.204;8.140;2023-02-13T15:51:49;14.10;56.60
73576;DHT22;61859;49.204;8.140;2023-02-13T15:54:27;14.20;56.60
73576;DHT22;61859;49.204;8.140;2023-02-13T15:56:57;14.30;56.40
73576;DHT22;61859;49.204;8.140;2023-02-13T15:59:25;14.70;55.90
73576;DHT22;61859;49.204;8.140;2023-02-13T16:01:53;14.70;55.40
73576;DHT22;61859;49.204;8.140;2023-02-13T16:04:19;14.80;54.90
73576;DHT22;61859;49.204;8.140;2023-02-13T16:06:46;15.00;54.60
73576;DHT22;61859;49.204;8.140;2023-02-13T16:09:33;15.00;54.20
73576;DHT22;61859;49.204;8.140;2023-02-13T16:14:30;14.50;54.70
73576;DHT22;61859;49.204;8.140;2023-02-13T16:17:05;13.90;55.70
73576;DHT22;61859;49.204;8.140;2023-02-13T16:25:27;11.70;60.90
73576;DHT22;61859;49.204;8.140;2023-02-13T16:28:00;10.90;62.90
73576;DHT22;61859;49.204;8.140;2023-02-13T16:30:34;10.50;64.40
73576;DHT22;61859;49.204;8.140;2023-02-13T16:33:09;10.10;65.50
73576;DHT22;61859;49.204;8.140;2023-02-13T16:35:37;9.80;66.30
73576;DHT22;61859;49.204;8.140;2023-02-13T16:38:03;9.40;67.40
73576;DHT22;61859;49.204;8.140;2023-02-13T16:51:09;8.20;72.10
73576;DHT22;61859;49.204;8.140;2023-02-13T16:53:35;7.90;73.40
73576;DHT22;61859;49.204;8.140;2023-02-13T16:56:05;7.70;73.90
73576;DHT22;61859;49.204;8.140;2023-02-13T16:58:31;7.40;74.80
73576;DHT22;61859;49.204;8.140;2023-02-13T17:00:57;7.10;75.80
73576;DHT22;61859;49.204;8.140;2023-02-13T17:03:22;6.90;76.00
73576;DHT22;61859;49.204;8.140;2023-02-13T17:05:48;6.80;76.70
73576;DHT22;61859;49.204;8.140;2023-02-13T17:08:13;6.60;78.20
73576;DHT22;61859;49.204;8.140;2023-02-13T17:10:39;6.40;78.30
73576;DHT22;61859;49.204;8.140;2023-02-13T17:15:36;6.10;80.30
73576;DHT22;61859;49.204;8.140;2023-02-13T17:18:05;6.00;80.80
73576;DHT22;61859;49.204;8.140;2023-02-13T17:20:32;5.60;81.80
73576;DHT22;61859;49.204;8.140;2023-02-13T17:23:03;5.50;82.70
73576;DHT22;61859;49.204;8.140;2023-02-13T17:25:31;5.60;83.00
73576;DHT22;61859;49.204;8.140;2023-02-13T17:28:00;5.40;83.40
73576;DHT22;61859;49.204;8.140;2023-02-13T17:30:29;5.30;83.70
73576;DHT22;61859;49.204;8.140;2023-02-13T17:33:04;5.20;84.30
73576;DHT22;61859;49.204;8.140;2023-02-13T17:35:30;5.20;84.70
73576;DHT22;61859;49.204;8.140;2023-02-13T17:37:56;5.10;85.00
73576;DHT22;61859;49.204;8.140;2023-02-13T17:40:24;5.00;85.10
73576;DHT22;61859;49.204;8.140;2023-02-13T17:42:53;4.90;85.40
73576;DHT22;61859;49.204;8.140;2023-02-13T17:45:21;4.80;86.00
73576;DHT22;61859;49.204;8.140;2023-02-13T17:47:47;4.70;86.20
73576;DHT22;61859;49.204;8.140;2023-02-13T17:50:13;4.60;86.50
73576;DHT22;61859;49.204;8.140;2023-02-13T17:52:40;4.60;86.30
73576;DHT22;61859;49.204;8.140;2023-02-13T17:58:08;4.70;86.80
73576;DHT22;61859;49.204;8.140;2023-02-13T18:00:34;4.30;87.40
73576;DHT22;61859;49.204;8.140;2023-02-13T18:03:00;4.40;87.40
73576;DHT22;61859;49.204;8.140;2023-02-13T18:05:27;4.30;87.60
73576;DHT22;61859;49.204;8.140;2023-02-13T18:07:52;4.30;87.60
73576;DHT22;61859;49.204;8.140;2023-02-13T18:10:24;4.00;87.70
73576;DHT22;61859;49.204;8.140;2023-02-13T18:12:51;4.10;88.00
73576;DHT22;61859;49.204;8.140;2023-02-13T18:15:17;4.00;88.40
73576;DHT22;61859;49.204;8.140;2023-02-13T18:17:44;3.70;88.60
73576;DHT22;61859;49.204;8.140;2023-02-13T18:20:12;3.80;89.10
73576;DHT22;61859;49.204;8.140;2023-02-13T18:22:38;3.80;89.00
73576;DHT22;61859;49.204;8.140;2023-02-13T18:25:04;3.80;89.40
73576;DHT22;61859;49.204;8.140;2023-02-13T18:27:30;3.40;89.40
73576;DHT22;61859;49.204;8.140;2023-02-13T18:29:56;3.50;89.80
73576;DHT22;61859;49.204;8.140;2023-02-13T18:32:21;3.50;89.90
73576;DHT22;61859;49.204;8.140;2023-02-13T18:34:47;3.30;90.20
73576;DHT22;61859;49.204;8.140;2023-02-13T18:37:14;3.30;90.70
73576;DHT22;61859;49.204;8.140;2023-02-13T18:39:40;3.30;90.40
73576;DHT22;61859;49.204;8.140;2023-02-13T18:42:06;3.10;90.60
73576;DHT22;61859;49.204;8.140;2023-02-13T18:44:31;3.10;91.10
73576;DHT22;61859;49.204;8.140;2023-02-13T18:46:57;3.10;91.20
73576;DHT22;61859;49.204;8.140;2023-02-13T18:49:23;3.10;91.20
73576;DHT22;61859;49.204;8.140;2023-02-13T18:51:49;3.00;91.50
73576;DHT22;61859;49.204;8.140;2023-02-13T18:54:15;2.90;91.60
73576;DHT22;61859;49.204;8.140;2023-02-13T18:56:42;2.90;91.60
73576;DHT22;61859;49.204;8.140;2023-02-13T18:59:08;2.80;91.90